createdAt,value
2022-09-03T00:00:56.794Z,0.00
2022-09-03T00:01:56.827Z,0.00
2022-09-03T00:02:56.827Z,0.00
2022-09-03T00:03:56.770Z,0.00
2022-09-03T00:04:56.729Z,0.00
2022-09-03T00:05:56.730Z,0.00
2022-09-03T00:06:56.684Z,0.00
2022-09-03T00:07:56.702Z,0.00
2022-09-03T00:08:56.644Z,0.00
2022-09-03T00:09:56.672Z,0.00
2022-09-03T00:10:56.632Z,0.00
2022-09-03T00:11:56.609Z,0.00
2022-09-03T00:12:56.621Z,0.00
2022-09-03T00:13:56.585Z,0.00
2022-09-03T00:14:56.579Z,0.00
2022-09-03T00:15:56.560Z,0.00
2022-09-03T00:16:56.522Z,0.00
2022-09-03T00:17:56.527Z,0.00
2022-09-03T00:18:56.480Z,0.00
2022-09-03T00:19:56.487Z,0.00
2022-09-03T00:20:56.443Z,0.00
2022-09-03T00:21:56.427Z,0.00
2022-09-03T00:22:56.442Z,0.00
2022-09-03T00:23:56.388Z,0.00
2022-09-03T00:24:56.482Z,0.00
2022-09-03T00:25:56.434Z,0.00
2022-09-03T00:26:56.371Z,0.00
2022-09-03T00:27:56.373Z,0.00
2022-09-03T00:28:56.332Z,0.00
2022-09-03T00:29:56.321Z,0.00
2022-09-03T00:30:56.299Z,0.00
2022-09-03T00:31:56.261Z,0.00
2022-09-03T00:32:56.272Z,0.00
2022-09-03T00:33:56.236Z,0.00
2022-09-03T00:34:56.218Z,0.00
2022-09-03T00:35:56.225Z,0.00
2022-09-03T00:36:56.252Z,0.00
2022-09-03T00:37:56.198Z,0.00
2022-09-03T00:38:56.154Z,0.00
2022-09-03T00:39:56.172Z,0.00
2022-09-03T00:40:56.120Z,0.00
2022-09-03T00:41:56.100Z,0.00
2022-09-03T00:42:56.132Z,0.00
2022-09-03T00:43:56.076Z,0.00
2022-09-03T00:44:56.045Z,0.00
2022-09-03T00:45:56.119Z,0.00
2022-09-03T00:46:56.046Z,0.00
2022-09-03T00:48:29.969Z,0.00
2022-09-03T00:48:55.962Z,0.00
2022-09-03T00:49:55.961Z,0.00
2022-09-03T00:50:55.937Z,0.00
2022-09-03T00:51:55.915Z,0.00
2022-09-03T00:52:55.991Z,0.00
2022-09-03T00:53:55.885Z,0.00
2022-09-03T00:54:55.877Z,0.00
2022-09-03T00:55:55.897Z,0.00
2022-09-03T00:56:55.847Z,0.00
2022-09-03T00:57:55.861Z,0.00
2022-09-03T00:58:55.842Z,0.00
2022-09-03T00:59:55.821Z,0.00
2022-09-03T01:00:55.797Z,0.00
2022-09-03T01:01:55.889Z,0.00
2022-09-03T01:02:55.862Z,0.00
2022-09-03T01:03:55.731Z,0.00
2022-09-03T01:04:55.712Z,0.00
2022-09-03T01:06:01.013Z,0.00
2022-09-03T01:06:57.709Z,0.00
2022-09-03T01:07:55.686Z,0.00
2022-09-03T01:08:55.639Z,0.00
2022-09-03T01:09:55.738Z,0.00
2022-09-03T01:10:55.618Z,0.00
2022-09-03T01:11:55.596Z,0.00
2022-09-03T01:12:55.923Z,0.00
2022-09-03T01:13:55.562Z,0.00
2022-09-03T01:14:55.559Z,0.00
2022-09-03T01:15:55.604Z,0.00
2022-09-03T01:16:55.522Z,0.00
2022-09-03T01:17:55.530Z,0.00
2022-09-03T01:18:55.490Z,0.00
2022-09-03T01:19:55.459Z,0.00
2022-09-03T01:20:55.549Z,0.00
2022-09-03T01:21:55.456Z,0.00
2022-09-03T01:22:55.459Z,0.00
2022-09-03T01:23:55.414Z,0.00
2022-09-03T01:24:55.382Z,0.00
2022-09-03T01:25:55.449Z,0.00
2022-09-03T01:26:55.349Z,0.00
2022-09-03T01:27:55.360Z,0.00
2022-09-03T01:28:55.310Z,0.00
2022-09-03T01:29:55.310Z,0.00
2022-09-03T01:30:55.315Z,0.00
2022-09-03T01:31:55.303Z,0.00
2022-09-03T01:32:55.281Z,0.00
2022-09-03T01:33:55.249Z,0.00
2022-09-03T01:34:55.239Z,0.00
2022-09-03T01:35:55.195Z,0.00
2022-09-03T01:36:55.198Z,0.00
2022-09-03T01:37:55.207Z,0.00
2022-09-03T01:38:55.163Z,0.00
2022-09-03T01:39:55.194Z,0.00
2022-09-03T01:40:55.125Z,0.00
2022-09-03T01:41:55.091Z,0.00
2022-09-03T01:42:55.233Z,0.00
2022-09-03T01:43:55.068Z,0.00
2022-09-03T01:44:55.062Z,0.00
2022-09-03T01:45:55.191Z,0.00
2022-09-03T01:46:55.013Z,0.00
2022-09-03T01:47:55.080Z,0.00
2022-09-03T01:48:54.984Z,0.00
2022-09-03T01:49:54.978Z,0.00
2022-09-03T01:50:54.946Z,0.00
2022-09-03T01:51:54.939Z,0.00
2022-09-03T01:52:54.958Z,0.00
2022-09-03T01:53:54.972Z,0.00
2022-09-03T01:54:54.882Z,0.00
2022-09-03T01:55:55.001Z,0.00
2022-09-03T01:56:54.855Z,0.00
2022-09-03T01:57:54.868Z,0.00
2022-09-03T01:58:54.826Z,0.00
2022-09-03T01:59:54.796Z,0.00
2022-09-03T02:00:54.794Z,0.00
2022-09-03T02:01:54.776Z,0.00
2022-09-03T02:02:54.944Z,0.00
2022-09-03T02:03:54.739Z,0.00
2022-09-03T02:04:54.805Z,0.00
2022-09-03T02:05:54.708Z,0.00
2022-09-03T02:06:54.689Z,0.00
2022-09-03T02:07:54.697Z,0.00
2022-09-03T02:08:54.648Z,0.00
2022-09-03T02:09:54.637Z,0.00
2022-09-03T02:10:54.620Z,0.00
2022-09-03T02:11:54.599Z,0.00
2022-09-03T02:12:54.610Z,0.00
2022-09-03T02:13:54.565Z,0.00
2022-09-03T02:14:54.549Z,0.00
2022-09-03T02:15:54.636Z,0.00
2022-09-03T02:16:54.518Z,0.00
2022-09-03T02:17:54.535Z,0.00
2022-09-03T02:18:54.489Z,0.00
2022-09-03T02:19:54.515Z,0.00
2022-09-03T02:20:54.445Z,0.00
2022-09-03T02:21:54.443Z,0.00
2022-09-03T02:22:54.452Z,0.00
2022-09-03T02:23:54.405Z,0.00
2022-09-03T02:24:54.373Z,0.00
2022-09-03T02:25:54.425Z,0.00
2022-09-03T02:26:54.409Z,0.00
2022-09-03T02:27:54.374Z,0.00
2022-09-03T02:28:54.308Z,0.00
2022-09-03T02:29:54.301Z,0.00
2022-09-03T02:30:54.344Z,0.00
2022-09-03T02:31:54.269Z,0.00
2022-09-03T02:32:54.277Z,0.00
2022-09-03T02:33:54.230Z,0.00
2022-09-03T02:34:54.222Z,0.00
2022-09-03T02:35:54.422Z,0.00
2022-09-03T02:36:54.185Z,0.00
2022-09-03T02:37:54.309Z,0.00
2022-09-03T02:38:54.151Z,0.00
2022-09-03T02:39:54.176Z,0.00
2022-09-03T02:40:54.123Z,0.00
2022-09-03T02:41:54.096Z,0.00
2022-09-03T02:42:54.124Z,0.00
2022-09-03T02:43:54.082Z,0.00
2022-09-03T02:44:54.055Z,0.00
2022-09-03T02:45:54.124Z,0.00
2022-09-03T02:46:54.016Z,0.00
2022-09-03T02:47:54.037Z,0.00
2022-09-03T02:48:54.076Z,0.00
2022-09-03T02:49:53.977Z,0.00
2022-09-03T02:50:53.968Z,0.00
2022-09-03T02:51:53.939Z,0.00
2022-09-03T02:52:53.956Z,0.00
2022-09-03T02:53:53.899Z,0.00
2022-09-03T02:54:53.895Z,0.00
2022-09-03T02:55:53.910Z,0.00
2022-09-03T02:56:53.865Z,0.00
2022-09-03T02:57:53.877Z,0.00
2022-09-03T02:58:53.831Z,0.00
2022-09-03T02:59:53.819Z,0.00
2022-09-03T03:00:53.831Z,0.00
2022-09-03T03:01:53.767Z,0.00
2022-09-03T03:02:53.839Z,0.00
2022-09-03T03:03:53.754Z,0.00
2022-09-03T03:04:53.727Z,0.00
2022-09-03T03:05:53.730Z,0.00
2022-09-03T03:06:53.728Z,0.00
2022-09-03T03:07:53.704Z,0.00
2022-09-03T03:08:53.657Z,0.00
2022-09-03T03:09:53.646Z,0.00
2022-09-03T03:10:53.728Z,0.00
2022-09-03T03:11:53.615Z,0.00
2022-09-03T03:12:53.659Z,0.00
2022-09-03T03:13:53.580Z,0.00
2022-09-03T03:14:53.555Z,0.00
2022-09-03T03:15:53.565Z,0.00
2022-09-03T03:16:54.668Z,0.00
2022-09-03T03:17:53.557Z,0.00
2022-09-03T03:18:53.507Z,0.00
2022-09-03T03:19:53.479Z,0.00
2022-09-03T03:20:53.472Z,0.00
2022-09-03T03:21:53.480Z,0.00
2022-09-03T03:22:53.459Z,0.00
2022-09-03T03:23:53.416Z,0.00
2022-09-03T03:24:53.411Z,0.00
2022-09-03T03:25:53.393Z,0.00
2022-09-03T03:26:53.369Z,0.00
2022-09-03T03:27:53.380Z,0.00
2022-09-03T03:28:53.323Z,0.00
2022-09-03T03:29:53.324Z,0.00
2022-09-03T03:30:53.328Z,0.00
2022-09-03T03:31:53.285Z,0.00
2022-09-03T03:32:53.379Z,0.00
2022-09-03T03:33:53.263Z,0.00
2022-09-03T03:34:53.257Z,0.00
2022-09-03T03:35:53.245Z,0.00
2022-09-03T03:36:53.215Z,0.00
2022-09-03T03:37:53.224Z,0.00
2022-09-03T03:38:53.180Z,0.00
2022-09-03T03:39:53.197Z,0.00
2022-09-03T03:40:53.143Z,0.00
2022-09-03T03:41:53.108Z,0.00
2022-09-03T03:42:53.212Z,0.00
2022-09-03T03:43:53.103Z,0.00
2022-09-03T03:44:53.072Z,0.00
2022-09-03T03:45:53.144Z,0.00
2022-09-03T03:46:53.033Z,0.00
2022-09-03T03:47:53.041Z,0.00
2022-09-03T03:48:53.000Z,0.00
2022-09-03T03:49:52.975Z,0.00
2022-09-03T03:50:53.059Z,0.00
2022-09-03T03:51:52.954Z,0.00
2022-09-03T03:52:52.974Z,0.00
2022-09-03T03:53:52.945Z,0.00
2022-09-03T03:54:52.881Z,0.00
2022-09-03T03:55:52.895Z,0.00
2022-09-03T03:56:55.826Z,0.00
2022-09-03T03:57:52.882Z,0.00
2022-09-03T03:58:52.827Z,0.00
2022-09-03T03:59:52.813Z,0.00
2022-09-03T04:00:52.832Z,0.00
2022-09-03T04:01:52.777Z,0.00
2022-09-03T04:02:52.901Z,0.00
2022-09-03T04:03:52.742Z,0.00
2022-09-03T04:04:52.746Z,0.00
2022-09-03T04:05:52.762Z,0.00
2022-09-03T04:06:52.710Z,0.00
2022-09-03T04:07:52.722Z,0.00
2022-09-03T04:08:52.672Z,0.00
2022-09-03T04:09:52.651Z,0.00
2022-09-03T04:10:52.675Z,0.00
2022-09-03T04:11:52.608Z,0.00
2022-09-03T04:12:52.624Z,0.00
2022-09-03T04:13:52.573Z,0.00
2022-09-03T04:14:52.571Z,0.00
2022-09-03T04:15:52.565Z,0.00
2022-09-03T04:16:52.646Z,0.00
2022-09-03T04:17:52.554Z,0.00
2022-09-03T04:18:52.498Z,0.00
2022-09-03T04:19:52.482Z,0.00
2022-09-03T04:20:52.457Z,0.00
2022-09-03T04:21:52.454Z,0.00
2022-09-03T04:22:52.454Z,5.62
2022-09-03T04:23:52.414Z,5.62
2022-09-03T04:24:52.398Z,5.62
2022-09-03T04:25:52.413Z,5.62
2022-09-03T04:26:52.355Z,5.62
2022-09-03T04:27:52.358Z,11.25
2022-09-03T04:28:52.364Z,11.25
2022-09-03T04:29:52.325Z,11.25
2022-09-03T04:30:52.383Z,11.25
2022-09-03T04:31:52.280Z,16.88
2022-09-03T04:32:52.579Z,16.88
2022-09-03T04:33:52.279Z,16.88
2022-09-03T04:34:52.240Z,22.50
2022-09-03T04:35:52.247Z,22.50
2022-09-03T04:36:52.986Z,22.50
2022-09-03T04:37:53.184Z,28.12
2022-09-03T04:38:52.223Z,28.12
2022-09-03T04:39:52.246Z,33.75
2022-09-03T04:40:52.129Z,33.75
2022-09-03T04:41:52.109Z,39.38
2022-09-03T04:42:52.098Z,39.38
2022-09-03T04:43:52.117Z,45.00
2022-09-03T04:44:52.112Z,50.62
2022-09-03T04:45:52.105Z,50.62
2022-09-03T04:46:52.023Z,56.25
2022-09-03T04:47:52.016Z,61.88
2022-09-03T04:48:52.031Z,67.50
2022-09-03T04:49:51.983Z,73.12
2022-09-03T04:50:51.959Z,73.12
2022-09-03T04:51:51.950Z,78.75
2022-09-03T04:52:52.017Z,84.38
2022-09-03T04:53:51.950Z,90.00
2022-09-03T04:54:51.983Z,90.00
2022-09-03T04:55:51.952Z,95.62
2022-09-03T04:56:51.977Z,101.25
2022-09-03T04:57:52.021Z,106.88
2022-09-03T04:58:51.852Z,106.88
2022-09-03T04:59:51.798Z,118.12
2022-09-03T05:00:51.931Z,135.00
2022-09-03T05:01:51.792Z,309.38
2022-09-03T05:02:51.766Z,675.00
2022-09-03T05:03:51.799Z,821.25
2022-09-03T05:04:51.773Z,793.12
2022-09-03T05:05:52.538Z,855.00
2022-09-03T05:06:52.686Z,1018.12
2022-09-03T05:07:51.686Z,995.62
2022-09-03T05:08:51.707Z,1001.25
2022-09-03T05:09:51.652Z,1018.12
2022-09-03T05:10:51.620Z,1125.00
2022-09-03T05:11:51.617Z,1085.62
2022-09-03T05:12:51.591Z,607.50
2022-09-03T05:13:51.607Z,292.50
2022-09-03T05:14:51.563Z,405.00
2022-09-03T05:15:51.564Z,967.50
2022-09-03T05:16:52.778Z,1445.62
2022-09-03T05:17:51.509Z,1485.00
2022-09-03T05:18:51.526Z,1507.50
2022-09-03T05:19:51.491Z,1423.12
2022-09-03T05:20:51.454Z,1501.88
2022-09-03T05:21:51.435Z,1535.62
2022-09-03T05:22:51.434Z,1614.38
2022-09-03T05:23:51.432Z,1665.00
2022-09-03T05:24:51.398Z,1636.88
2022-09-03T05:25:51.381Z,1687.50
2022-09-03T05:26:51.367Z,1890.00
2022-09-03T05:27:51.340Z,1974.38
2022-09-03T05:28:51.347Z,1957.50
2022-09-03T05:29:51.319Z,1715.62
2022-09-03T05:30:51.294Z,1946.25
2022-09-03T05:31:51.325Z,2131.88
2022-09-03T05:32:51.260Z,1434.38
2022-09-03T05:33:51.301Z,590.62
2022-09-03T05:34:51.229Z,427.50
2022-09-03T05:35:51.204Z,433.12
2022-09-03T05:36:51.180Z,466.88
2022-09-03T05:37:51.161Z,939.38
2022-09-03T05:38:51.189Z,1552.50
2022-09-03T05:39:51.172Z,2250.00
2022-09-03T05:40:51.156Z,2683.12
2022-09-03T05:41:51.110Z,2716.88
2022-09-03T05:42:51.073Z,2334.38
2022-09-03T05:43:51.089Z,2424.38
2022-09-03T05:44:51.047Z,2441.25
2022-09-03T05:45:51.130Z,2655.00
2022-09-03T05:46:51.008Z,2655.00
2022-09-03T05:47:51.003Z,2795.62
2022-09-03T05:48:51.011Z,2773.12
2022-09-03T05:49:50.961Z,2919.38
2022-09-03T05:50:50.949Z,3009.38
2022-09-03T05:51:50.955Z,2857.50
2022-09-03T05:52:50.932Z,2795.62
2022-09-03T05:53:50.922Z,2936.25
2022-09-03T05:54:50.874Z,3121.88
2022-09-03T05:55:50.865Z,2368.12
2022-09-03T05:56:50.863Z,1119.38
2022-09-03T05:57:50.837Z,624.38
2022-09-03T05:58:50.904Z,624.38
2022-09-03T05:59:50.931Z,1170.00
2022-09-03T06:00:50.786Z,2255.62
2022-09-03T06:01:53.758Z,2981.25
2022-09-03T06:02:51.841Z,2913.75
2022-09-03T06:03:51.109Z,2835.00
2022-09-03T06:04:50.789Z,3037.50
2022-09-03T06:05:50.697Z,3375.00
2022-09-03T06:06:50.688Z,3757.50
2022-09-03T06:07:50.660Z,3369.38
2022-09-03T06:08:50.691Z,3110.62
2022-09-03T06:09:50.644Z,3465.00
2022-09-03T06:10:50.609Z,3611.25
2022-09-03T06:11:50.607Z,3532.50
2022-09-03T06:12:50.572Z,3881.25
2022-09-03T06:13:50.622Z,4320.00
2022-09-03T06:14:50.544Z,3847.50
2022-09-03T06:15:50.547Z,3954.38
2022-09-03T06:16:50.646Z,3982.50
2022-09-03T06:17:50.499Z,3420.00
2022-09-03T06:18:50.515Z,3369.38
2022-09-03T06:19:50.527Z,3746.25
2022-09-03T06:20:50.461Z,3240.00
2022-09-03T06:21:50.442Z,1816.88
2022-09-03T06:22:50.431Z,849.38
2022-09-03T06:23:50.460Z,1811.25
2022-09-03T06:24:50.392Z,3515.62
2022-09-03T06:25:50.389Z,4162.50
2022-09-03T06:26:50.365Z,4044.38
2022-09-03T06:27:50.332Z,4241.25
2022-09-03T06:28:50.365Z,4123.12
2022-09-03T06:29:50.322Z,4089.38
2022-09-03T06:30:50.294Z,3858.75
2022-09-03T06:31:50.360Z,3723.75
2022-09-03T06:32:50.255Z,4196.25
2022-09-03T06:33:50.281Z,4483.12
2022-09-03T06:34:50.233Z,4325.62
2022-09-03T06:35:50.325Z,4404.38
2022-09-03T06:36:50.221Z,4162.50
2022-09-03T06:37:50.184Z,4106.25
2022-09-03T06:38:50.203Z,4381.88
2022-09-03T06:39:50.238Z,4505.62
2022-09-03T06:40:50.186Z,4314.38
2022-09-03T06:41:50.118Z,4095.00
2022-09-03T06:42:50.139Z,4314.38
2022-09-03T06:43:50.129Z,4736.25
2022-09-03T06:44:50.160Z,4685.62
2022-09-03T06:45:50.144Z,4438.12
2022-09-03T06:46:50.044Z,3313.12
2022-09-03T06:47:50.051Z,1653.75
2022-09-03T06:49:23.590Z,1445.62
2022-09-03T06:49:50.009Z,2953.12
2022-09-03T06:50:49.998Z,4331.25
2022-09-03T06:51:49.988Z,4466.25
2022-09-03T06:52:49.955Z,4663.12
2022-09-03T06:53:49.987Z,4674.38
2022-09-03T06:54:49.941Z,4449.38
2022-09-03T06:55:49.929Z,4606.88
2022-09-03T06:56:49.928Z,4623.75
2022-09-03T06:57:52.812Z,4685.62
2022-09-03T06:58:49.922Z,4657.50
2022-09-03T06:59:49.882Z,4646.25
2022-09-03T07:00:49.918Z,4972.50
2022-09-03T07:01:49.903Z,5270.62
2022-09-03T07:02:50.021Z,4927.50
2022-09-03T07:03:49.827Z,4500.00
2022-09-03T07:04:49.796Z,4466.25
2022-09-03T07:05:49.781Z,4685.62
2022-09-03T07:06:49.773Z,4573.12
2022-09-03T07:07:49.741Z,4224.38
2022-09-03T07:08:49.740Z,4646.25
2022-09-03T07:09:49.696Z,4983.75
2022-09-03T07:10:49.683Z,4516.88
2022-09-03T07:11:49.670Z,4601.25
2022-09-03T07:12:49.655Z,4443.75
2022-09-03T07:13:49.674Z,2761.88
2022-09-03T07:14:51.126Z,1440.00
2022-09-03T07:15:49.658Z,2407.50
2022-09-03T07:16:49.607Z,3538.12
2022-09-03T07:17:49.566Z,3105.00
2022-09-03T07:18:49.596Z,2210.62
2022-09-03T07:19:49.553Z,1636.88
2022-09-03T07:20:49.513Z,1136.25
2022-09-03T07:21:50.706Z,1057.50
2022-09-03T07:22:50.504Z,1051.88
2022-09-03T07:23:49.500Z,1063.12
2022-09-03T07:24:49.452Z,1074.38
2022-09-03T07:25:49.437Z,1091.25
2022-09-03T07:26:49.455Z,1125.00
2022-09-03T07:27:49.403Z,1693.12
2022-09-03T07:28:49.414Z,2868.75
2022-09-03T07:29:49.373Z,4140.00
2022-09-03T07:30:49.376Z,4989.38
2022-09-03T07:31:49.392Z,5045.62
2022-09-03T07:32:49.337Z,4837.50
2022-09-03T07:33:49.338Z,4944.38
2022-09-03T07:34:49.296Z,5428.12
2022-09-03T07:35:49.273Z,4978.12
2022-09-03T07:36:49.265Z,4758.75
2022-09-03T07:37:49.243Z,5096.25
2022-09-03T07:38:49.252Z,5062.50
2022-09-03T07:39:49.284Z,4736.25
2022-09-03T07:40:49.192Z,5096.25
2022-09-03T07:41:49.185Z,5135.62
2022-09-03T07:42:52.109Z,4848.75
2022-09-03T07:43:51.174Z,5163.75
2022-09-03T07:44:49.137Z,5231.25
2022-09-03T07:45:49.169Z,5158.12
2022-09-03T07:46:49.204Z,5203.12
2022-09-03T07:47:49.082Z,5040.00
2022-09-03T07:48:49.101Z,4966.88
2022-09-03T07:49:49.041Z,5203.12
2022-09-03T07:50:49.031Z,4432.50
2022-09-03T07:51:49.006Z,4381.88
2022-09-03T07:52:49.015Z,5146.88
2022-09-03T07:53:49.021Z,4995.00
2022-09-03T07:54:49.027Z,5118.75
2022-09-03T07:55:49.957Z,5180.62
2022-09-03T07:56:48.942Z,4966.88
2022-09-03T07:57:48.940Z,4966.88
2022-09-03T07:58:48.949Z,5197.50
2022-09-03T07:59:48.908Z,5208.75
2022-09-03T08:00:48.935Z,5445.00
2022-09-03T08:01:48.895Z,5326.88
2022-09-03T08:02:48.854Z,4933.12
2022-09-03T08:03:48.930Z,4910.62
2022-09-03T08:04:48.835Z,4848.75
2022-09-03T08:05:48.799Z,5647.50
2022-09-03T08:06:48.784Z,5973.75
2022-09-03T08:07:48.779Z,5439.38
2022-09-03T08:08:48.798Z,5045.62
2022-09-03T08:09:48.758Z,5478.75
2022-09-03T08:10:48.737Z,5737.50
2022-09-03T08:11:48.736Z,5782.50
2022-09-03T08:12:48.702Z,5529.38
2022-09-03T08:13:48.721Z,4758.75
2022-09-03T08:14:48.668Z,5146.88
2022-09-03T08:15:48.697Z,5844.38
2022-09-03T08:16:48.643Z,5208.75
2022-09-03T08:17:48.631Z,4753.12
2022-09-03T08:18:48.643Z,5490.00
2022-09-03T08:19:48.631Z,5253.75
2022-09-03T08:20:48.587Z,4995.00
2022-09-03T08:21:49.572Z,5647.50
2022-09-03T08:22:48.555Z,5062.50
2022-09-03T08:23:48.563Z,4741.88
2022-09-03T08:24:48.527Z,4854.38
2022-09-03T08:25:48.517Z,4865.62
2022-09-03T08:26:52.171Z,5326.88
2022-09-03T08:27:49.481Z,5523.75
2022-09-03T08:28:48.511Z,5838.75
2022-09-03T08:29:48.457Z,5546.25
2022-09-03T08:30:48.447Z,4938.75
2022-09-03T08:31:48.496Z,5400.00
2022-09-03T08:32:48.413Z,5343.75
2022-09-03T08:33:48.428Z,5113.12
2022-09-03T08:34:48.394Z,5422.50
2022-09-03T08:35:48.364Z,5281.88
2022-09-03T08:36:48.352Z,4798.12
2022-09-03T08:37:48.330Z,5242.50
2022-09-03T08:38:48.364Z,4966.88
2022-09-03T08:39:48.350Z,4730.62
2022-09-03T08:40:48.304Z,4933.12
2022-09-03T08:41:48.281Z,5810.62
2022-09-03T08:42:48.262Z,5540.62
2022-09-03T08:43:48.318Z,4933.12
2022-09-03T08:44:48.260Z,5422.50
2022-09-03T08:45:48.226Z,5698.12
2022-09-03T08:46:48.303Z,5366.25
2022-09-03T08:47:48.216Z,3757.50
2022-09-03T08:48:48.225Z,4736.25
2022-09-03T08:49:48.179Z,3043.12
2022-09-03T08:50:48.154Z,3999.38
2022-09-03T08:51:48.143Z,2638.12
2022-09-03T08:52:48.218Z,5743.12
2022-09-03T08:53:48.153Z,3346.88
2022-09-03T08:54:48.093Z,5073.75
2022-09-03T08:55:48.077Z,4561.88
2022-09-03T08:56:48.074Z,5366.25
2022-09-03T08:57:48.056Z,5917.50
2022-09-03T08:58:48.071Z,3009.38
2022-09-03T08:59:48.020Z,5338.12
2022-09-03T09:00:48.028Z,6165.00
2022-09-03T09:01:48.113Z,5602.50
2022-09-03T09:02:48.027Z,5838.75
2022-09-03T09:03:48.044Z,3898.12
2022-09-03T09:04:47.973Z,4140.00
2022-09-03T09:05:47.939Z,3622.50
2022-09-03T09:06:47.934Z,3487.50
2022-09-03T09:07:47.912Z,3268.12
2022-09-03T09:08:47.950Z,5568.75
2022-09-03T09:09:47.899Z,6187.50
2022-09-03T09:10:47.872Z,5321.25
2022-09-03T09:11:47.884Z,5197.50
2022-09-03T09:12:47.869Z,4297.50
2022-09-03T09:13:47.851Z,4741.88
2022-09-03T09:14:47.812Z,4685.62
2022-09-03T09:15:47.872Z,4651.88
2022-09-03T09:16:47.794Z,4854.38
2022-09-03T09:17:47.778Z,4837.50
2022-09-03T09:18:47.783Z,4674.38
2022-09-03T09:19:48.774Z,4905.00
2022-09-03T09:20:47.726Z,3830.62
2022-09-03T09:21:47.713Z,3436.88
2022-09-03T09:22:47.710Z,2621.25
2022-09-03T09:23:47.714Z,4815.00
2022-09-03T09:24:47.672Z,5079.38
2022-09-03T09:25:47.658Z,5068.12
2022-09-03T09:26:47.640Z,4815.00
2022-09-03T09:27:47.624Z,4741.88
2022-09-03T09:28:47.651Z,4865.62
2022-09-03T09:29:47.602Z,4893.75
2022-09-03T09:30:47.659Z,5495.62
2022-09-03T09:31:47.577Z,4860.00
2022-09-03T09:32:47.567Z,3757.50
2022-09-03T09:33:47.576Z,3656.25
2022-09-03T09:34:51.827Z,3543.75
2022-09-03T09:35:48.517Z,4471.88
2022-09-03T09:36:47.540Z,4831.88
2022-09-03T09:37:47.491Z,4410.00
2022-09-03T09:38:47.506Z,4831.88
2022-09-03T09:39:47.519Z,4955.62
2022-09-03T09:40:47.454Z,5360.62
2022-09-03T09:41:47.438Z,5270.62
2022-09-03T09:42:48.425Z,4831.88
2022-09-03T09:43:47.440Z,5225.62
2022-09-03T09:44:47.404Z,5045.62
2022-09-03T09:45:47.452Z,3526.88
2022-09-03T09:46:50.246Z,3172.50
2022-09-03T09:47:48.350Z,3155.62
2022-09-03T09:48:47.364Z,4005.00
2022-09-03T09:49:47.317Z,3858.75
2022-09-03T09:50:47.304Z,3723.75
2022-09-03T09:51:47.289Z,3133.12
2022-09-03T09:52:48.220Z,3926.25
2022-09-03T09:53:47.290Z,2688.75
2022-09-03T09:54:47.249Z,4348.12
2022-09-03T09:55:47.235Z,3178.12
2022-09-03T09:56:47.218Z,5141.25
2022-09-03T09:57:47.190Z,4123.12
2022-09-03T09:58:47.216Z,3521.25
2022-09-03T09:59:47.178Z,3065.62
2022-09-03T10:00:47.147Z,2981.25
2022-09-03T10:01:47.259Z,2711.25
2022-09-03T10:02:47.205Z,2424.38
2022-09-03T10:03:47.167Z,2373.75
2022-09-03T10:04:47.091Z,2109.38
2022-09-03T10:05:47.073Z,2047.50
2022-09-03T10:06:47.082Z,2272.50
2022-09-03T10:07:47.058Z,2351.25
2022-09-03T10:08:47.058Z,1839.38
2022-09-03T10:09:47.014Z,1721.25
2022-09-03T10:10:47.002Z,1805.62
2022-09-03T10:11:46.987Z,2120.62
2022-09-03T10:12:46.965Z,3262.50
2022-09-03T10:13:46.989Z,3183.75
2022-09-03T10:14:46.929Z,3183.75
2022-09-03T10:15:46.950Z,4162.50
2022-09-03T10:16:46.899Z,3307.50
2022-09-03T10:17:46.890Z,2576.25
2022-09-03T10:18:46.904Z,2621.25
2022-09-03T10:19:46.840Z,2621.25
2022-09-03T10:20:46.821Z,2176.88
2022-09-03T10:21:46.819Z,3307.50
2022-09-03T10:22:56.246Z,1749.38
2022-09-03T10:23:47.828Z,1642.50
2022-09-03T10:24:46.767Z,1631.25
2022-09-03T10:25:46.760Z,1580.62
2022-09-03T10:26:46.745Z,1918.12
2022-09-03T10:27:47.725Z,1935.00
2022-09-03T10:28:46.716Z,2205.00
2022-09-03T10:29:46.726Z,1558.12
2022-09-03T10:30:46.710Z,2880.00
2022-09-03T10:31:46.657Z,2576.25
2022-09-03T10:32:48.558Z,3341.25
2022-09-03T10:33:47.626Z,3999.38
2022-09-03T10:34:46.653Z,4280.62
2022-09-03T10:35:46.613Z,4252.50
2022-09-03T10:36:46.578Z,4111.88
2022-09-03T10:37:46.574Z,4320.00
2022-09-03T10:38:46.582Z,4269.38
2022-09-03T10:39:51.544Z,4038.75
2022-09-03T10:40:48.532Z,4162.50
2022-09-03T10:41:46.501Z,4083.75
2022-09-03T10:42:46.509Z,3695.62
2022-09-03T10:43:46.468Z,4095.00
2022-09-03T10:44:46.484Z,4168.12
2022-09-03T10:45:46.444Z,3510.00
2022-09-03T10:46:46.490Z,3661.88
2022-09-03T10:47:46.504Z,3836.25
2022-09-03T10:48:46.404Z,3712.50
2022-09-03T10:49:46.409Z,3926.25
2022-09-03T10:50:46.363Z,3290.62
2022-09-03T10:51:49.554Z,1963.12
2022-09-03T10:52:47.354Z,1530.00
2022-09-03T10:53:46.324Z,1496.25
2022-09-03T10:54:46.336Z,1485.00
2022-09-03T10:55:46.292Z,1479.38
2022-09-03T10:56:46.269Z,1445.62
2022-09-03T10:57:46.255Z,1423.12
2022-09-03T10:58:46.231Z,1406.25
2022-09-03T10:59:46.267Z,1395.00
2022-09-03T11:00:46.229Z,1378.12
2022-09-03T11:01:46.260Z,1344.38
2022-09-03T11:02:46.254Z,1338.75
2022-09-03T11:03:46.167Z,1327.50
2022-09-03T11:04:46.192Z,1321.88
2022-09-03T11:05:46.153Z,1316.25
2022-09-03T11:06:46.109Z,1299.38
2022-09-03T11:07:46.115Z,1282.50
2022-09-03T11:08:46.073Z,1271.25
2022-09-03T11:09:46.089Z,1254.38
2022-09-03T11:10:46.054Z,1231.88
2022-09-03T11:11:46.041Z,1215.00
2022-09-03T11:12:46.028Z,1209.38
2022-09-03T11:13:46.006Z,1209.38
2022-09-03T11:14:46.013Z,1198.12
2022-09-03T11:15:46.027Z,1186.88
2022-09-03T11:16:46.952Z,1175.62
2022-09-03T11:17:45.931Z,1175.62
2022-09-03T11:18:45.934Z,1181.25
2022-09-03T11:19:45.948Z,1175.62
2022-09-03T11:20:45.896Z,1175.62
2022-09-03T11:21:45.867Z,1175.62
2022-09-03T11:22:45.883Z,1181.25
2022-09-03T11:23:45.834Z,1192.50
2022-09-03T11:24:45.874Z,1231.88
2022-09-03T11:25:45.800Z,1276.88
2022-09-03T11:26:45.898Z,1299.38
2022-09-03T11:27:45.781Z,1316.25
2022-09-03T11:28:45.809Z,1316.25
2022-09-03T11:29:45.760Z,1209.38
2022-09-03T11:30:45.767Z,1186.88
2022-09-03T11:31:45.720Z,1181.25
2022-09-03T11:32:45.699Z,1170.00
2022-09-03T11:33:45.742Z,1164.38
2022-09-03T11:34:45.680Z,1170.00
2022-09-03T11:35:45.662Z,1192.50
2022-09-03T11:36:48.033Z,1181.25
2022-09-03T11:37:46.643Z,1136.25
2022-09-03T11:38:45.662Z,1136.25
2022-09-03T11:39:45.638Z,1170.00
2022-09-03T11:40:45.582Z,1209.38
2022-09-03T11:41:45.553Z,1203.75
2022-09-03T11:42:45.541Z,1147.50
2022-09-03T11:43:45.536Z,1096.88
2022-09-03T11:44:51.733Z,1046.25
2022-09-03T11:45:46.533Z,984.38
2022-09-03T11:46:45.492Z,928.12
2022-09-03T11:47:45.472Z,916.88
2022-09-03T11:48:45.445Z,939.38
2022-09-03T11:49:45.458Z,973.12
2022-09-03T11:50:45.432Z,1006.88
2022-09-03T11:51:45.413Z,1023.75
2022-09-03T11:52:45.391Z,1023.75
2022-09-03T11:53:45.362Z,1018.12
2022-09-03T11:54:45.376Z,973.12
2022-09-03T11:55:45.339Z,916.88
2022-09-03T11:56:45.326Z,883.12
2022-09-03T11:57:45.307Z,866.25
2022-09-03T11:58:45.295Z,855.00
2022-09-03T11:59:45.306Z,849.38
2022-09-03T12:00:45.270Z,838.12
2022-09-03T12:01:45.236Z,838.12
2022-09-03T12:02:45.303Z,849.38
2022-09-03T12:03:45.225Z,871.88
2022-09-03T12:04:45.325Z,900.00
2022-09-03T12:05:45.177Z,922.50
2022-09-03T12:06:45.157Z,945.00
2022-09-03T12:07:45.153Z,950.62
2022-09-03T12:08:45.126Z,945.00
2022-09-03T12:09:45.138Z,939.38
2022-09-03T12:10:45.089Z,945.00
2022-09-03T12:11:45.076Z,950.62
2022-09-03T12:12:45.082Z,961.88
2022-09-03T12:13:45.056Z,967.50
2022-09-03T12:14:45.065Z,984.38
2022-09-03T12:15:45.044Z,995.62
2022-09-03T12:16:45.008Z,1001.25
2022-09-03T12:17:44.980Z,990.00
2022-09-03T12:18:44.971Z,967.50
2022-09-03T12:19:44.975Z,950.62
2022-09-03T12:20:44.946Z,945.00
2022-09-03T12:21:44.941Z,939.38
2022-09-03T12:22:44.959Z,933.75
2022-09-03T12:23:44.909Z,933.75
2022-09-03T12:24:44.916Z,945.00
2022-09-03T12:25:44.865Z,967.50
2022-09-03T12:26:44.833Z,1006.88
2022-09-03T12:27:44.869Z,1035.00
2022-09-03T12:28:44.898Z,1006.88
2022-09-03T12:29:44.792Z,990.00
2022-09-03T12:30:44.906Z,973.12
2022-09-03T12:31:44.756Z,950.62
2022-09-03T12:32:44.737Z,916.88
2022-09-03T12:33:44.777Z,894.38